Time;durP1;ratioP1;P1;durP2;ratioP2;P2;SDS_P1;SDS_P2;PMS_P1;PMS_P2;Temp;Humidity;BMP_temperature;BMP_pressure;BME280_temperature;BME280_humidity;BME280_pressure;Samples;Min_cycle;Max_cycle;Signal;HPM_P1;HPM_P2
2022/07/19 00:00:24;;;;;;;4.60;4.20;;;20.90;74.10;;;;;;5003322;28;20185;-57
2022/07/19 00:02:50;;;;;;;4.78;4.38;;;20.90;74.80;;;;;;5012224;28;20226;-55
2022/07/19 00:05:16;;;;;;;7.63;4.40;;;20.80;75.30;;;;;;5010722;28;20594;-55
2022/07/19 00:07:43;;;;;;;4.67;4.27;;;20.80;75.90;;;;;;5011384;28;20210;-57
2022/07/19 00:10:10;;;;;;;4.47;4.07;;;20.70;76.00;;;;;;5012061;28;20993;-57
2022/07/19 00:12:36;;;;;;;4.60;4.20;;;20.70;76.20;;;;;;5012578;28;20201;-56
2022/07/19 00:15:04;;;;;;;4.60;4.20;;;20.70;76.10;;;;;;5011194;28;20655;-56
2022/07/19 00:17:30;;;;;;;4.55;4.25;;;20.70;76.50;;;;;;5011636;28;20209;-56
2022/07/19 00:19:56;;;;;;;4.60;4.13;;;20.60;77.20;;;;;;5010812;28;20562;-56
2022/07/19 00:22:21;;;;;;;5.20;4.73;;;20.50;78.00;;;;;;5012198;28;20597;-55
2022/07/19 00:24:47;;;;;;;4.27;3.90;;;20.40;78.30;;;;;;5011976;28;20238;-55
2022/07/19 00:27:12;;;;;;;4.73;4.33;;;20.40;78.80;;;;;;5011503;28;20209;-57
2022/07/19 00:29:38;;;;;;;3.87;3.57;;;20.30;79.60;;;;;;5011423;28;20186;-56
2022/07/19 00:32:04;;;;;;;4.07;3.77;;;20.30;80.20;;;;;;5012352;28;20534;-56
2022/07/19 00:34:29;;;;;;;3.90;3.60;;;20.40;80.10;;;;;;5012272;28;20195;-56
2022/07/19 00:36:55;;;;;;;4.00;3.70;;;20.40;80.30;;;;;;5007845;28;21006;-55
2022/07/19 00:39:21;;;;;;;4.70;4.30;;;20.30;79.70;;;;;;5027253;28;20293;-56
2022/07/19 00:41:46;;;;;;;4.77;4.37;;;20.30;79.70;;;;;;5011352;28;20461;-57
2022/07/19 00:44:12;;;;;;;3.73;3.43;;;20.30;79.90;;;;;;5005835;28;20535;-56
2022/07/19 00:46:38;;;;;;;7.57;3.90;;;20.20;80.50;;;;;;5037424;28;20210;-55
2022/07/19 00:49:04;;;;;;;6.37;3.77;;;20.20;80.70;;;;;;5012948;28;20205;-56
2022/07/19 00:51:34;;;;;;;4.55;3.90;;;20.10;81.20;;;;;;5012218;28;20293;-56
2022/07/19 00:54:01;;;;;;;4.90;4.45;;;20.10;81.50;;;;;;5012468;28;20245;-55
2022/07/19 00:56:27;;;;;;;3.90;3.60;;;20.10;81.70;;;;;;5008438;28;20207;-56
2022/07/19 00:58:54;;;;;;;4.47;4.07;;;20.00;82.20;;;;;;5011459;28;20595;-57
2022/07/19 01:01:19;;;;;;;8.30;4.32;;;19.90;82.80;;;;;;5009573;28;20266;-55
2022/07/19 01:03:46;;;;;;;7.83;4.33;;;20.00;83.00;;;;;;5011811;28;20211;-56
2022/07/19 01:06:12;;;;;;;5.57;3.83;;;19.90;82.70;;;;;;5007759;28;20733;-55
2022/07/19 01:08:38;;;;;;;4.43;4.03;;;19.90;82.90;;;;;;5012200;28;20183;-55
2022/07/19 01:11:05;;;;;;;5.03;4.17;;;19.90;83.40;;;;;;5011245;28;20293;-56
2022/07/19 01:13:31;;;;;;;4.38;4.07;;;19.80;83.90;;;;;;5010403;28;20187;-57
2022/07/19 01:15:56;;;;;;;4.57;4.18;;;19.80;84.20;;;;;;5011510;28;20226;-56
2022/07/19 01:18:22;;;;;;;6.80;4.20;;;19.80;84.70;;;;;;5010430;28;20187;-57
2022/07/19 01:20:48;;;;;;;4.67;4.27;;;19.70;85.20;;;;;;5010481;28;20232;-57
2022/07/19 01:23:13;;;;;;;4.57;4.17;;;19.70;85.90;;;;;;5011165;28;20550;-56
2022/07/19 01:25:39;;;;;;;5.20;4.83;;;19.80;85.70;;;;;;5011442;28;20294;-57
2022/07/19 01:28:06;;;;;;;5.40;4.17;;;19.80;86.10;;;;;;5010538;28;20179;-55
2022/07/19 01:30:33;;;;;;;5.35;4.68;;;19.80;85.90;;;;;;5010779;28;20178;-57
2022/07/19 01:32:59;;;;;;;4.70;4.30;;;19.80;85.80;;;;;;5011360;28;20190;-56
2022/07/19 01:35:25;;;;;;;4.55;4.15;;;19.80;85.70;;;;;;5002633;28;20197;-56
2022/07/19 01:37:52;;;;;;;4.60;4.30;;;19.80;85.60;;;;;;5010468;28;20289;-56
2022/07/19 01:40:18;;;;;;;4.70;4.30;;;19.80;85.80;;;;;;5010491;28;20211;-57
2022/07/19 01:42:46;;;;;;;4.82;4.22;;;19.90;85.80;;;;;;5010858;28;20208;-56
2022/07/19 01:45:12;;;;;;;4.80;4.40;;;19.90;85.60;;;;;;5018388;28;20529;-56
2022/07/19 01:47:40;;;;;;;4.65;4.25;;;19.90;85.40;;;;;;5010552;28;20596;-55
2022/07/19 01:50:07;;;;;;;5.72;4.28;;;19.90;85.40;;;;;;5010315;28;20190;-58
2022/07/19 01:52:33;;;;;;;4.40;4.00;;;19.90;85.90;;;;;;5010932;28;20198;-56
2022/07/19 01:54:58;;;;;;;6.27;4.60;;;19.90;85.90;;;;;;5010613;28;20182;-56
2022/07/19 01:57:25;;;;;;;8.17;4.30;;;19.80;86.20;;;;;;5009858;28;20207;-57
2022/07/19 01:59:50;;;;;;;4.50;4.10;;;19.90;86.70;;;;;;5007215;28;20694;-56
2022/07/19 02:02:16;;;;;;;4.53;4.23;;;19.90;86.10;;;;;;5010783;28;20499;-56
2022/07/19 02:04:42;;;;;;;4.23;3.93;;;19.80;86.20;;;;;;5010392;28;20266;-56
2022/07/19 02:07:07;;;;;;;4.70;4.13;;;19.70;86.30;;;;;;5010420;28;20289;-55
2022/07/19 02:09:33;;;;;;;5.37;3.97;;;19.70;87.00;;;;;;5012667;28;20697;-56
2022/07/19 02:11:59;;;;;;;4.47;4.13;;;19.70;87.30;;;;;;5015022;28;20900;-57
2022/07/19 02:14:24;;;;;;;4.30;3.90;;;19.70;87.50;;;;;;5008260;28;20190;-57
2022/07/19 02:16:50;;;;;;;6.53;4.57;;;19.70;87.60;;;;;;5014841;28;20301;-56
2022/07/19 02:19:15;;;;;;;7.03;4.70;;;19.70;87.70;;;;;;5013671;28;20202;-55
2022/07/19 02:21:41;;;;;;;4.70;4.20;;;19.70;88.20;;;;;;5013855;28;20246;-57
2022/07/19 02:24:07;;;;;;;4.97;4.30;;;19.70;88.40;;;;;;5014578;28;20202;-56
2022/07/19 02:26:34;;;;;;;5.00;4.60;;;19.60;89.10;;;;;;5014015;28;20315;-56
2022/07/19 02:28:59;;;;;;;4.88;4.47;;;19.60;89.40;;;;;;5013917;28;20552;-57
2022/07/19 02:31:25;;;;;;;4.50;4.20;;;19.60;89.80;;;;;;5014496;28;20194;-57
2022/07/19 02:33:51;;;;;;;5.07;4.67;;;19.60;89.60;;;;;;5014066;28;20233;-57
2022/07/19 02:36:17;;;;;;;5.00;4.60;;;19.40;89.90;;;;;;5013116;28;20217;-57
2022/07/19 02:38:43;;;;;;;4.30;4.00;;;19.40;90.00;;;;;;5013990;28;20270;-57
2022/07/19 02:41:09;;;;;;;4.72;4.20;;;19.40;90.30;;;;;;5013593;28;20633;-56
2022/07/19 02:43:35;;;;;;;5.40;4.23;;;19.30;90.40;;;;;;5016871;28;20182;-57
2022/07/19 02:46:00;;;;;;;6.13;4.50;;;19.30;90.50;;;;;;5018628;28;20206;-56
2022/07/19 02:48:26;;;;;;;4.80;4.50;;;19.30;90.50;;;;;;5013867;28;20273;-56
2022/07/19 02:50:52;;;;;;;9.20;8.40;;;19.30;90.40;;;;;;5014027;28;20218;-56
2022/07/19 02:53:17;;;;;;;5.50;5.10;;;19.30;90.50;;;;;;5013587;28;20282;-55
2022/07/19 02:55:43;;;;;;;6.20;5.60;;;19.30;90.40;;;;;;5028816;28;20171;-56
2022/07/19 02:58:09;;;;;;;6.57;5.97;;;19.30;90.40;;;;;;5013770;28;20179;-57
2022/07/19 03:00:34;;;;;;;6.73;4.23;;;19.30;90.50;;;;;;5027566;28;20187;-57
2022/07/19 03:03:43;;;;;;;5.57;5.07;;;19.20;90.70;;;;;;5012066;28;20672;-58
2022/07/19 03:05:47;;;;;;;5.90;5.40;;;19.20;90.80;;;;;;5012580;28;20186;-58
2022/07/19 03:08:12;;;;;;;4.88;4.40;;;19.20;91.00;;;;;;5014314;28;20648;-56
2022/07/19 03:10:38;;;;;;;7.90;4.90;;;19.20;91.00;;;;;;5013741;28;20187;-58
2022/07/19 03:13:04;;;;;;;5.70;5.20;;;19.20;91.00;;;;;;5013312;28;20222;-58
2022/07/19 03:15:30;;;;;;;4.83;4.43;;;19.10;91.20;;;;;;5013838;28;20442;-56
2022/07/19 03:17:55;;;;;;;4.70;4.10;;;19.10;91.20;;;;;;5012952;28;20553;-57
2022/07/19 03:20:21;;;;;;;4.60;4.30;;;19.10;91.30;;;;;;5011579;28;20182;-56
2022/07/19 03:22:47;;;;;;;5.90;4.50;;;19.00;91.30;;;;;;5013408;28;20218;-57
2022/07/19 03:25:12;;;;;;;4.90;4.50;;;19.00;91.50;;;;;;5013816;28;20433;-56
2022/07/19 03:27:39;;;;;;;5.63;4.90;;;18.90;91.70;;;;;;5013094;28;20206;-56
2022/07/19 03:30:05;;;;;;;5.70;4.85;;;18.90;92.10;;;;;;5012678;28;20236;-56
2022/07/19 03:32:31;;;;;;;5.35;4.90;;;18.90;92.00;;;;;;5013411;28;20190;-58
2022/07/19 03:34:56;;;;;;;5.20;4.70;;;18.80;92.00;;;;;;5012493;28;20198;-58
2022/07/19 03:37:22;;;;;;;4.80;4.50;;;18.70;92.10;;;;;;5012422;28;20238;-57
2022/07/19 03:39:48;;;;;;;4.97;4.60;;;18.80;92.10;;;;;;5012225;28;20186;-56
2022/07/19 03:42:13;;;;;;;9.47;6.10;;;19.20;92.40;;;;;;5013522;28;20574;-57
2022/07/19 03:44:39;;;;;;;6.50;4.23;;;18.80;92.20;;;;;;5013728;28;20229;-57
2022/07/19 03:47:04;;;;;;;4.70;4.27;;;18.70;92.10;;;;;;5012987;28;20269;-58
2022/07/19 03:49:30;;;;;;;5.17;4.57;;;18.80;92.20;;;;;;5012429;28;20201;-58
2022/07/19 03:51:56;;;;;;;6.20;5.03;;;18.70;92.30;;;;;;5011293;28;20215;-56
2022/07/19 03:54:22;;;;;;;6.07;4.90;;;18.70;92.40;;;;;;5012716;28;20635;-56
2022/07/19 03:56:47;;;;;;;4.80;4.40;;;18.70;92.40;;;;;;5007511;28;20502;-57
2022/07/19 03:59:13;;;;;;;4.90;4.50;;;18.70;92.40;;;;;;5012329;28;20945;-56
2022/07/19 04:01:40;;;;;;;4.93;4.50;;;18.70;92.50;;;;;;5010920;28;20291;-57
2022/07/19 04:04:06;;;;;;;6.95;4.65;;;18.70;92.40;;;;;;5012601;28;20254;-57
2022/07/19 04:06:31;;;;;;;5.60;4.57;;;18.70;92.70;;;;;;5007804;28;20290;-58
2022/07/19 04:08:57;;;;;;;6.13;4.70;;;18.80;92.30;;;;;;5011987;28;20556;-58
2022/07/19 04:11:22;;;;;;;5.40;4.40;;;18.80;92.10;;;;;;5011529;28;20735;-57
2022/07/19 04:13:48;;;;;;;4.70;4.10;;;18.80;92.30;;;;;;5011967;28;20183;-57
2022/07/19 04:16:13;;;;;;;9.07;8.27;;;18.80;92.20;;;;;;5012380;28;20215;-56
2022/07/19 04:18:39;;;;;;;6.93;4.57;;;18.80;92.00;;;;;;5009279;28;20564;-56
2022/07/19 04:21:05;;;;;;;6.50;4.37;;;18.80;92.00;;;;;;5008382;28;20211;-55
2022/07/19 04:23:31;;;;;;;6.50;4.53;;;18.80;92.20;;;;;;5008907;28;20953;-55
2022/07/19 04:25:56;;;;;;;6.60;4.93;;;18.80;92.10;;;;;;5010412;28;20206;-54
2022/07/19 04:28:22;;;;;;;12.90;7.67;;;18.80;92.30;;;;;;5005969;28;20720;-55
2022/07/19 04:30:48;;;;;;;7.20;4.70;;;18.90;92.80;;;;;;5006196;28;20216;-55
2022/07/19 04:33:16;;;;;;;7.10;5.10;;;18.90;93.00;;;;;;5009629;28;20179;-61
2022/07/19 04:35:42;;;;;;;5.75;5.15;;;19.00;93.00;;;;;;5008908;28;20266;-61
2022/07/19 04:38:08;;;;;;;7.60;4.53;;;19.00;93.00;;;;;;5012249;28;20699;-61
2022/07/19 04:40:33;;;;;;;4.70;4.20;;;19.00;93.00;;;;;;5010241;28;20243;-61
2022/07/19 04:42:59;;;;;;;6.63;4.70;;;19.10;93.20;;;;;;5011532;28;20618;-60
2022/07/19 04:45:25;;;;;;;5.00;4.60;;;19.10;92.30;;;;;;5012656;28;20198;-61
2022/07/19 04:47:50;;;;;;;5.67;4.60;;;19.00;92.20;;;;;;5011480;28;20214;-61
2022/07/19 04:50:16;;;;;;;5.00;4.60;;;19.10;92.20;;;;;;5014444;28;20942;-61
2022/07/19 04:52:42;;;;;;;5.63;4.90;;;19.10;92.50;;;;;;5013464;28;20183;-61
2022/07/19 04:55:08;;;;;;;5.20;4.70;;;19.20;92.40;;;;;;5013276;28;20739;-60
2022/07/19 04:57:33;;;;;;;7.32;6.13;;;19.20;92.00;;;;;;5011817;28;20217;-60
2022/07/19 04:59:59;;;;;;;5.33;4.83;;;19.20;92.00;;;;;;5012417;28;20191;-61
2022/07/19 05:02:24;;;;;;;4.60;4.20;;;19.20;92.00;;;;;;5007772;28;20214;-61
2022/07/19 05:04:50;;;;;;;7.17;4.73;;;19.30;92.00;;;;;;5011190;28;20242;-61
2022/07/19 05:07:16;;;;;;;5.20;4.78;;;19.30;91.90;;;;;;5012992;28;20752;-61
2022/07/19 05:09:42;;;;;;;5.20;4.80;;;19.50;91.80;;;;;;5003355;28;20195;-61
2022/07/19 05:12:09;;;;;;;7.27;5.33;;;19.50;91.70;;;;;;5011670;28;20447;-61
2022/07/19 05:14:35;;;;;;;5.88;5.38;;;19.60;91.70;;;;;;5010186;28;20186;-65
2022/07/19 05:17:00;;;;;;;7.57;5.10;;;19.70;91.50;;;;;;5006670;28;20202;-55
2022/07/19 05:19:26;;;;;;;5.03;4.63;;;19.70;91.30;;;;;;5009912;28;20529;-56
2022/07/19 05:21:51;;;;;;;5.60;4.77;;;19.80;91.40;;;;;;5005525;28;20226;-56
2022/07/19 05:24:18;;;;;;;5.03;4.53;;;19.90;91.20;;;;;;5019033;28;20226;-55
2022/07/19 05:26:44;;;;;;;7.75;6.70;;;20.10;91.00;;;;;;5017164;28;20215;-55
2022/07/19 05:29:09;;;;;;;5.70;5.20;;;20.20;91.10;;;;;;5008568;28;20671;-56
2022/07/19 05:31:35;;;;;;;5.53;5.03;;;20.30;90.80;;;;;;5008693;28;20365;-55
2022/07/19 05:34:01;;;;;;;6.00;4.63;;;20.40;90.50;;;;;;5009153;28;20245;-56
2022/07/19 05:36:26;;;;;;;5.73;5.33;;;20.50;90.20;;;;;;5008974;28;20209;-56
2022/07/19 05:38:53;;;;;;;7.57;4.80;;;20.50;90.00;;;;;;5006572;28;20191;-56
2022/07/19 05:41:21;;;;;;;6.20;5.60;;;20.70;89.40;;;;;;5009469;28;20562;-55
2022/07/19 05:43:47;;;;;;;5.63;5.03;;;20.90;88.70;;;;;;5009336;28;20191;-56
2022/07/19 05:46:13;;;;;;;6.75;4.95;;;21.00;88.50;;;;;;5009022;28;20195;-61
2022/07/19 05:48:38;;;;;;;5.50;4.70;;;21.10;87.80;;;;;;5003234;28;20209;-63
2022/07/19 05:51:04;;;;;;;6.23;4.60;;;21.20;87.50;;;;;;5005006;28;20189;-61
2022/07/19 05:53:30;;;;;;;5.73;5.13;;;21.40;87.30;;;;;;5008540;28;20556;-63
2022/07/19 05:55:56;;;;;;;5.90;4.50;;;21.50;88.10;;;;;;5009395;28;20202;-62
2022/07/19 05:58:22;;;;;;;12.97;9.20;;;21.60;86.30;;;;;;5007000;28;20218;-62
2022/07/19 06:03:32;;;;;;;9.37;5.50;;;21.90;84.90;;;;;;5005595;28;20443;-62
2022/07/19 06:05:58;;;;;;;6.10;5.60;;;22.10;85.50;;;;;;5007947;28;20461;-62
2022/07/19 06:08:23;;;;;;;7.03;5.50;;;22.10;84.10;;;;;;5004681;28;20261;-59
2022/07/19 06:10:49;;;;;;;5.43;4.90;;;22.40;85.50;;;;;;5003971;28;20488;-60
2022/07/19 06:13:15;;;;;;;5.63;5.03;;;22.50;85.60;;;;;;5006565;28;20195;-60
2022/07/19 06:15:41;;;;;;;5.03;4.63;;;22.70;85.30;;;;;;5007447;28;20190;-60
2022/07/19 06:18:06;;;;;;;6.60;4.73;;;22.80;81.90;;;;;;5007047;28;20437;-60
2022/07/19 06:20:32;;;;;;;5.87;4.70;;;23.00;81.90;;;;;;5008442;28;20181;-59
2022/07/19 06:22:57;;;;;;;5.07;4.50;;;23.10;79.80;;;;;;5009297;28;20298;-59
2022/07/19 06:25:23;;;;;;;9.50;6.33;;;23.20;80.20;;;;;;5010425;28;20187;-60
2022/07/19 06:27:49;;;;;;;6.30;5.80;;;23.30;79.90;;;;;;5007003;28;20203;-60
2022/07/19 06:30:14;;;;;;;7.27;4.53;;;23.40;79.80;;;;;;5009865;28;20922;-61
2022/07/19 06:32:40;;;;;;;8.97;5.83;;;23.60;79.70;;;;;;5008821;28;20256;-63
2022/07/19 06:35:06;;;;;;;5.30;4.80;;;23.70;79.50;;;;;;5005887;28;20189;-63
2022/07/19 06:37:32;;;;;;;6.97;5.00;;;23.80;79.50;;;;;;5008753;28;20671;-63
2022/07/19 06:39:57;;;;;;;6.23;5.63;;;23.70;79.20;;;;;;5007882;28;20461;-63
2022/07/19 06:42:23;;;;;;;18.00;5.50;;;24.10;77.40;;;;;;5005563;28;20206;-63
2022/07/19 06:44:48;;;;;;;5.33;4.67;;;24.20;76.10;;;;;;5009755;28;20326;-63
2022/07/19 06:47:15;;;;;;;4.57;4.13;;;24.30;74.10;;;;;;5006427;28;20237;-63
2022/07/19 06:49:41;;;;;;;7.60;4.80;;;24.50;73.50;;;;;;5005845;28;20451;-63
2022/07/19 06:52:06;;;;;;;6.90;4.10;;;24.80;72.90;;;;;;5007239;28;20201;-62
2022/07/19 06:54:32;;;;;;;5.00;4.30;;;25.20;70.20;;;;;;5007682;28;20447;-61
2022/07/19 06:56:58;;;;;;;4.30;3.87;;;25.60;68.00;;;;;;5008377;28;20762;-61
2022/07/19 06:59:23;;;;;;;8.43;4.37;;;25.80;66.10;;;;;;5002146;28;20197;-61
2022/07/19 07:01:49;;;;;;;5.40;5.00;;;26.10;66.20;;;;;;5012087;28;20217;-61
2022/07/19 07:04:15;;;;;;;5.37;4.87;;;26.20;64.80;;;;;;5009992;28;20232;-64
2022/07/19 07:06:40;;;;;;;4.70;4.30;;;26.40;63.50;;;;;;5024434;28;20629;-64
2022/07/19 07:09:06;;;;;;;5.80;3.90;;;26.90;61.00;;;;;;5006641;28;20195;-58
2022/07/19 07:11:32;;;;;;;6.10;4.07;;;27.80;58.80;;;;;;5008077;28;20251;-58
2022/07/19 07:13:57;;;;;;;4.83;4.10;;;30.60;54.80;;;;;;5009188;28;20655;-59
2022/07/19 07:16:23;;;;;;;4.30;3.90;;;33.40;48.40;;;;;;5008016;28;20260;-59
2022/07/19 07:18:48;;;;;;;4.80;4.40;;;36.20;43.10;;;;;;5008280;28;20226;-59
2022/07/19 07:21:14;;;;;;;4.70;4.27;;;38.40;37.90;;;;;;5010527;28;20230;-63
2022/07/19 07:23:39;;;;;;;4.30;3.90;;;40.20;34.90;;;;;;5013157;28;20191;-61
2022/07/19 07:26:05;;;;;;;11.80;10.60;;;42.50;31.20;;;;;;5003993;28;20199;-63
2022/07/19 07:28:31;;;;;;;4.63;4.27;;;44.20;28.70;;;;;;5009875;28;20260;-62
2022/07/19 07:30:57;;;;;;;5.17;4.50;;;45.10;26.70;;;;;;5010540;28;20707;-63
2022/07/19 07:33:22;;;;;;;7.03;4.53;;;45.90;26.00;;;;;;5010048;28;20201;-65
2022/07/19 07:35:48;;;;;;;4.53;4.13;;;47.30;25.00;;;;;;5007705;28;20505;-64
2022/07/19 07:38:14;;;;;;;10.50;4.00;;;48.10;24.00;;;;;;5024976;28;20190;-63
2022/07/19 07:40:39;;;;;;;4.40;4.00;;;47.20;22.80;;;;;;5012803;28;20696;-64
2022/07/19 07:43:05;;;;;;;5.37;4.70;;;47.80;23.60;;;;;;5009212;28;20237;-64
2022/07/19 07:45:32;;;;;;;6.87;5.00;;;49.20;22.80;;;;;;5010388;28;20231;-62
2022/07/19 07:47:58;;;;;;;5.23;4.60;;;49.30;22.20;;;;;;5004219;28;20827;-63
2022/07/19 07:50:24;;;;;;;5.47;4.97;;;49.70;22.10;;;;;;5010143;28;20457;-62
2022/07/19 07:52:49;;;;;;;5.40;4.90;;;48.80;22.10;;;;;;5010722;28;20608;-61
2022/07/19 07:55:15;;;;;;;5.13;4.10;;;50.00;21.40;;;;;;5009426;28;20520;-61
2022/07/19 07:57:41;;;;;;;5.37;4.93;;;49.20;21.60;;;;;;5011725;28;20242;-61
2022/07/19 08:00:09;;;;;;;4.90;4.50;;;49.70;21.30;;;;;;5012340;28;20495;-61
2022/07/19 08:02:40;;;;;;;4.77;4.23;;;50.50;20.70;;;;;;5011306;28;20654;-65
2022/07/19 08:05:06;;;;;;;7.33;6.80;;;49.70;20.80;;;;;;5008156;28;20815;-65
2022/07/19 08:07:31;;;;;;;3.80;3.50;;;50.80;20.60;;;;;;5010614;28;20449;-65
2022/07/19 08:09:59;;;;;;;4.03;3.70;;;51.10;19.60;;;;;;5010348;28;20195;-62
2022/07/19 08:12:25;;;;;;;4.80;3.80;;;48.60;20.50;;;;;;5010638;28;20187;-61
2022/07/19 08:14:50;;;;;;;3.40;3.20;;;49.40;20.20;;;;;;5009281;28;20452;-61
2022/07/19 08:17:16;;;;;;;3.50;3.20;;;49.20;19.90;;;;;;5010559;28;20477;-62
2022/07/19 08:19:42;;;;;;;3.30;3.10;;;48.60;19.70;;;;;;5009213;28;20560;-61
2022/07/19 08:22:07;;;;;;;3.83;3.37;;;47.80;20.40;;;;;;5011051;28;20214;-64
2022/07/19 08:24:33;;;;;;;2.80;2.60;;;49.20;19.70;;;;;;5010491;28;20282;-62
2022/07/19 08:26:59;;;;;;;4.00;3.10;;;48.20;20.00;;;;;;5006831;28;20246;-65
2022/07/19 08:29:24;;;;;;;4.80;3.53;;;48.80;19.90;;;;;;5005579;28;20229;-64
2022/07/19 08:31:50;;;;;;;4.10;2.90;;;48.60;19.80;;;;;;5008524;28;20195;-63
2022/07/19 08:34:15;;;;;;;3.30;3.00;;;49.10;19.50;;;;;;5010709;28;20252;-63
2022/07/19 08:36:41;;;;;;;3.10;2.90;;;47.80;19.40;;;;;;5009492;28;20214;-61
2022/07/19 08:39:07;;;;;;;2.60;2.40;;;47.80;20.10;;;;;;5009547;28;20201;-64
2022/07/19 08:41:34;;;;;;;3.93;2.83;;;48.20;20.00;;;;;;5008854;28;20301;-61
2022/07/19 08:44:02;;;;;;;2.90;2.60;;;48.20;19.70;;;;;;5007856;28;20442;-63
2022/07/19 08:46:28;;;;;;;3.53;3.23;;;48.70;19.10;;;;;;5004256;28;20561;-62
2022/07/19 08:48:55;;;;;;;3.40;3.20;;;48.00;19.50;;;;;;5008467;28;20465;-61
2022/07/19 08:51:22;;;;;;;3.33;2.60;;;47.60;19.70;;;;;;5005091;28;20758;-62
2022/07/19 08:53:49;;;;;;;2.60;2.40;;;47.30;20.30;;;;;;5008124;28;20453;-61
2022/07/19 08:59:01;;;;;;;3.77;2.80;;;47.60;20.10;;;;;;5010045;28;20469;-63
2022/07/19 09:01:27;;;;;;;4.63;2.77;;;47.40;20.30;;;;;;5009702;28;20473;-63
2022/07/19 09:04:19;;;;;;;3.23;3.00;;;46.40;20.40;;;;;;5025141;28;20187;-61
2022/07/19 09:06:47;;;;;;;2.73;2.63;;;46.90;20.30;;;;;;5001972;28;20199;-62
2022/07/19 09:09:15;;;;;;;3.90;3.60;;;47.40;20.20;;;;;;5005857;28;20442;-61
2022/07/19 09:11:50;;;;;;;3.30;3.00;;;46.90;20.50;;;;;;5009278;28;20446;-64
2022/07/19 09:14:24;;;;;;;3.20;2.80;;;47.10;20.40;;;;;;5017679;28;20528;-65
2022/07/19 09:17:06;;;;;;;3.90;3.33;;;47.10;20.00;;;;;;5008399;28;20461;-66
2022/07/19 09:19:37;;;;;;;2.60;2.40;;;46.30;20.40;;;;;;5007888;28;20441;-61
2022/07/19 09:22:05;;;;;;;2.60;2.40;;;46.00;20.50;;;;;;5010154;28;20473;-61
2022/07/19 09:24:39;;;;;;;2.90;2.70;;;46.50;20.30;;;;;;5008419;28;20800;-61
2022/07/19 09:27:10;;;;;;;3.30;3.03;;;47.10;19.90;;;;;;5007847;28;20596;-60
2022/07/19 09:29:41;;;;;;;3.00;2.80;;;46.90;19.90;;;;;;5006311;28;20433;-60
2022/07/19 09:32:16;;;;;;;3.60;3.30;;;46.70;19.90;;;;;;5008724;28;20450;-61
2022/07/19 09:34:53;;;;;;;3.67;3.23;;;47.00;20.30;;;;;;5006131;28;20444;-60
2022/07/19 09:37:30;;;;;;;3.23;3.03;;;46.80;19.40;;;;;;5008925;28;20483;-61
2022/07/19 09:39:58;;;;;;;2.83;2.60;;;46.70;19.30;;;;;;5010005;28;20460;-60
2022/07/19 09:42:38;;;;;;;3.10;2.90;;;46.20;19.30;;;;;;5009920;28;20555;-62
2022/07/19 09:45:08;;;;;;;3.93;2.40;;;45.80;19.50;;;;;;5006669;28;20442;-61
2022/07/19 09:47:36;;;;;;;3.27;3.07;;;46.60;19.50;;;;;;5008450;28;20481;-61
2022/07/19 09:50:11;;;;;;;2.80;2.60;;;47.40;19.60;;;;;;5004353;28;20532;-61
2022/07/19 09:52:38;;;;;;;4.07;3.43;;;47.90;18.80;;;;;;5009977;28;20515;-61
2022/07/19 09:55:05;;;;;;;3.30;3.10;;;47.80;18.60;;;;;;5009996;28;20465;-62
2022/07/19 09:57:38;;;;;;;3.77;2.90;;;47.80;18.50;;;;;;5010942;28;20466;-61
2022/07/19 10:00:05;;;;;;;3.07;2.77;;;48.10;18.10;;;;;;5005456;28;20446;-62
2022/07/19 10:02:37;;;;;;;3.47;3.17;;;47.40;18.20;;;;;;5008359;28;20465;-60
2022/07/19 10:05:06;;;;;;;4.33;3.27;;;46.90;18.40;;;;;;5007600;28;20442;-66
2022/07/19 10:07:33;;;;;;;3.33;3.03;;;45.90;18.90;;;;;;5007306;28;20465;-61
2022/07/19 10:10:08;;;;;;;3.33;3.03;;;45.50;19.50;;;;;;5008370;28;20832;-63
2022/07/19 10:12:35;;;;;;;3.57;3.37;;;46.20;19.10;;;;;;5006113;28;20433;-63
2022/07/19 10:15:01;;;;;;;3.20;2.97;;;45.30;19.20;;;;;;4999321;28;20480;-63
2022/07/19 10:17:46;;;;;;;3.37;3.07;;;45.00;19.40;;;;;;5021811;28;20890;-63
2022/07/19 10:20:16;;;;;;;4.37;3.20;;;45.40;19.30;;;;;;5004210;28;20190;-60
2022/07/19 10:22:42;;;;;;;4.30;2.80;;;44.90;19.50;;;;;;5006619;28;20481;-61
2022/07/19 10:25:13;;;;;;;3.53;3.23;;;44.20;19.20;;;;;;5007203;28;20457;-68
2022/07/19 10:27:44;;;;;;;3.20;3.00;;;43.80;19.70;;;;;;5013395;28;20326;-60
2022/07/19 10:30:10;;;;;;;3.80;3.20;;;42.70;20.40;;;;;;5016580;28;20439;-62
2022/07/19 10:32:36;;;;;;;6.30;3.33;;;41.90;21.30;;;;;;5006152;28;20449;-60
2022/07/19 10:35:21;;;;;;;3.97;3.67;;;41.00;21.90;;;;;;5012119;28;20782;-60
2022/07/19 10:37:49;;;;;;;3.47;3.20;;;39.70;23.00;;;;;;4999992;28;20456;-60
2022/07/19 10:40:40;;;;;;;5.07;3.67;;;38.90;23.50;;;;;;5012305;28;20508;-59
2022/07/19 10:43:10;;;;;;;5.13;3.20;;;38.00;24.40;;;;;;5013027;28;20836;-59
2022/07/19 10:45:38;;;;;;;3.27;3.07;;;37.60;24.60;;;;;;5012312;28;20434;-60
2022/07/19 10:48:05;;;;;;;6.60;3.30;;;37.80;25.40;;;;;;5028379;28;20453;-60
2022/07/19 10:50:44;;;;;;;4.40;3.47;;;37.90;24.70;;;;;;5007564;28;20468;-60
2022/07/19 10:53:10;;;;;;;6.23;3.30;;;38.00;24.90;;;;;;5012679;28;20946;-60
2022/07/19 10:55:36;;;;;;;3.50;3.20;;;37.70;25.00;;;;;;5012595;28;20540;-60
2022/07/19 10:58:05;;;;;;;3.70;3.40;;;37.90;25.40;;;;;;5011620;28;20264;-61
2022/07/19 11:00:32;;;;;;;3.30;3.10;;;38.20;25.00;;;;;;5012829;28;20437;-60
2022/07/19 11:03:20;;;;;;;5.80;3.37;;;38.10;24.70;;;;;;5012457;28;20860;-59
2022/07/19 11:05:48;;;;;;;3.70;3.40;;;38.30;24.30;;;;;;5018371;28;20480;-61
2022/07/19 11:08:14;;;;;;;3.43;3.17;;;38.90;24.40;;;;;;5012227;28;20430;-60
2022/07/19 11:10:39;;;;;;;7.37;6.67;;;39.20;23.90;;;;;;5012349;28;20429;-60
2022/07/19 11:13:06;;;;;;;3.60;3.30;;;40.60;23.60;;;;;;5012720;28;20191;-60
2022/07/19 11:15:32;;;;;;;4.00;3.30;;;41.70;22.10;;;;;;5012048;28;20195;-60
2022/07/19 11:18:04;;;;;;;3.27;3.00;;;42.10;21.60;;;;;;5012249;28;20430;-60
2022/07/19 11:20:32;;;;;;;3.93;3.23;;;41.90;21.70;;;;;;5012035;28;20282;-60
2022/07/19 11:22:59;;;;;;;3.57;3.27;;;42.60;21.70;;;;;;5012280;28;20484;-60
2022/07/19 11:25:29;;;;;;;4.20;3.63;;;43.00;21.50;;;;;;5012100;28;20442;-60
2022/07/19 11:27:55;;;;;;;3.37;3.07;;;42.40;21.40;;;;;;5009910;28;20503;-60
2022/07/19 11:30:23;;;;;;;3.80;3.47;;;41.80;21.80;;;;;;5001811;28;20440;-61
2022/07/19 11:33:06;;;;;;;3.40;2.83;;;42.80;21.70;;;;;;5012484;28;20445;-60
2022/07/19 11:35:32;;;;;;;4.40;3.20;;;42.80;21.00;;;;;;5009562;28;20595;-60
2022/07/19 11:37:59;;;;;;;4.23;3.23;;;42.90;20.80;;;;;;5012247;28;20994;-59
2022/07/19 11:40:33;;;;;;;4.20;3.17;;;41.80;21.20;;;;;;5012121;28;20274;-61
2022/07/19 11:42:58;;;;;;;3.70;3.40;;;41.40;21.70;;;;;;5010746;28;20576;-60
2022/07/19 11:45:25;;;;;;;3.50;2.93;;;41.00;22.20;;;;;;5011876;28;20516;-60
2022/07/19 11:47:54;;;;;;;3.63;3.20;;;40.90;22.00;;;;;;5011425;28;20226;-60
2022/07/19 11:50:22;;;;;;;3.73;3.43;;;40.30;22.30;;;;;;5011074;28;20532;-60
2022/07/19 11:52:52;;;;;;;3.53;3.23;;;39.80;22.80;;;;;;5012542;28;20441;-60
2022/07/19 11:55:20;;;;;;;3.33;3.03;;;39.60;23.20;;;;;;5011576;28;20506;-60
2022/07/19 11:57:47;;;;;;;5.03;4.67;;;40.00;23.70;;;;;;5010915;28;20784;-60
2022/07/19 12:00:14;;;;;;;3.60;3.07;;;39.60;23.50;;;;;;5011513;28;20446;-60
2022/07/19 12:03:15;;;;;;;3.53;3.10;;;38.50;24.20;;;;;;5011758;28;20616;-60
2022/07/19 12:05:57;;;;;;;6.40;3.20;;;37.60;24.60;;;;;;4995014;28;20812;-60
2022/07/19 12:08:39;;;;;;;3.57;3.23;;;36.70;25.40;;;;;;5000216;28;20460;-60
2022/07/19 12:11:23;;;;;;;3.90;3.60;;;36.00;25.90;;;;;;5009672;28;20548;-60
2022/07/19 12:13:51;;;;;;;5.00;3.43;;;35.70;26.40;;;;;;5003540;28;20473;-60
2022/07/19 12:16:18;;;;;;;3.60;3.37;;;35.50;26.90;;;;;;5010841;28;20834;-59
2022/07/19 12:18:49;;;;;;;4.50;3.63;;;35.40;27.10;;;;;;5011169;28;20952;-59
2022/07/19 12:21:27;;;;;;;4.03;3.20;;;35.10;27.20;;;;;;5010627;28;20453;-60
2022/07/19 12:24:28;;;;;;;5.53;3.27;;;34.90;27.30;;;;;;5011345;28;20441;-60
2022/07/19 12:27:06;;;;;;;3.87;3.50;;;34.80;27.50;;;;;;4999335;28;20473;-60
2022/07/19 12:29:40;;;;;;;3.90;3.60;;;34.80;27.70;;;;;;5013768;28;20441;-60
2022/07/19 12:32:08;;;;;;;3.90;3.50;;;34.80;28.00;;;;;;5011029;28;20434;-60
2022/07/19 12:34:56;;;;;;;4.73;4.30;;;34.80;28.00;;;;;;5007807;28;20430;-60
2022/07/19 12:37:28;;;;;;;4.20;3.63;;;34.80;28.20;;;;;;5000467;28;20465;-60
2022/07/19 12:40:10;;;;;;;4.43;3.70;;;34.70;27.80;;;;;;5010617;28;20448;-60
2022/07/19 12:42:43;;;;;;;4.10;3.77;;;34.60;28.00;;;;;;5011395;28;20539;-60
2022/07/19 12:45:20;;;;;;;4.77;3.60;;;34.70;28.20;;;;;;5009705;28;20444;-59
2022/07/19 12:47:47;;;;;;;4.03;3.73;;;34.70;28.60;;;;;;5015760;28;20480;-61
2022/07/19 12:50:24;;;;;;;3.97;3.57;;;34.80;28.30;;;;;;5010015;28;20437;-60
2022/07/19 12:52:51;;;;;;;4.03;3.20;;;34.70;28.40;;;;;;5010311;28;20461;-60